sensor_id;sensor_type;location;lat;lon;timestamp;P1;durP1;ratioP1;P2;durP2;ratioP2
11039;SDS011;5573;49.592;8.662;2023-09-19T00:00:35;118.35;;;112.18;;
11039;SDS011;5573;49.592;8.662;2023-09-19T00:03:03;113.55;;;107.47;;
11039;SDS011;5573;49.592;8.662;2023-09-19T00:05:34;117.97;;;111.78;;
11039;SDS011;5573;49.592;8.662;2023-09-19T00:08:02;118.72;;;112.55;;
11039;SDS011;5573;49.592;8.662;2023-09-19T00:10:31;114.03;;;108.07;;
11039;SDS011;5573;49.592;8.662;2023-09-19T00:13:01;119.68;;;113.53;;
11039;SDS011;5573;49.592;8.662;2023-09-19T00:15:38;117.80;;;111.78;;
11039;SDS011;5573;49.592;8.662;2023-09-19T00:18:07;123.65;;;117.30;;
11039;SDS011;5573;49.592;8.662;2023-09-19T00:20:36;124.45;;;118.13;;
11039;SDS011;5573;49.592;8.662;2023-09-19T00:23:05;126.68;;;120.03;;
11039;SDS011;5573;49.592;8.662;2023-09-19T00:25:35;124.22;;;117.78;;
11039;SDS011;5573;49.592;8.662;2023-09-19T00:28:04;121.18;;;114.90;;
11039;SDS011;5573;49.592;8.662;2023-09-19T00:30:34;128.13;;;121.47;;
11039;SDS011;5573;49.592;8.662;2023-09-19T00:33:03;131.40;;;124.63;;
11039;SDS011;5573;49.592;8.662;2023-09-19T00:35:34;112.45;;;106.47;;
11039;SDS011;5573;49.592;8.662;2023-09-19T00:38:03;127.00;;;120.35;;
11039;SDS011;5573;49.592;8.662;2023-09-19T00:40:33;128.50;;;121.80;;
11039;SDS011;5573;49.592;8.662;2023-09-19T00:43:02;131.20;;;124.35;;
11039;SDS011;5573;49.592;8.662;2023-09-19T00:45:30;117.72;;;111.63;;
11039;SDS011;5573;49.592;8.662;2023-09-19T00:47:59;126.13;;;119.60;;
11039;SDS011;5573;49.592;8.662;2023-09-19T00:50:38;122.38;;;116.05;;
11039;SDS011;5573;49.592;8.662;2023-09-19T00:53:10;123.57;;;117.28;;
11039;SDS011;5573;49.592;8.662;2023-09-19T00:55:44;123.22;;;116.82;;
11039;SDS011;5573;49.592;8.662;2023-09-19T00:58:13;129.23;;;122.53;;
11039;SDS011;5573;49.592;8.662;2023-09-19T01:00:41;120.43;;;114.18;;
11039;SDS011;5573;49.592;8.662;2023-09-19T01:03:11;104.80;;;99.38;;
11039;SDS011;5573;49.592;8.662;2023-09-19T01:05:42;121.68;;;115.30;;
11039;SDS011;5573;49.592;8.662;2023-09-19T01:08:10;136.27;;;129.30;;
11039;SDS011;5573;49.592;8.662;2023-09-19T01:10:39;118.30;;;112.18;;
11039;SDS011;5573;49.592;8.662;2023-09-19T01:13:22;142.52;;;135.20;;
11039;SDS011;5573;49.592;8.662;2023-09-19T01:15:59;129.80;;;122.97;;
11039;SDS011;5573;49.592;8.662;2023-09-19T01:18:35;135.60;;;128.55;;
11039;SDS011;5573;49.592;8.662;2023-09-19T01:21:14;128.98;;;122.20;;
11039;SDS011;5573;49.592;8.662;2023-09-19T01:24:00;139.20;;;132.00;;
11039;SDS011;5573;49.592;8.662;2023-09-19T01:26:52;125.95;;;119.35;;
11039;SDS011;5573;49.592;8.662;2023-09-19T01:29:34;130.40;;;123.60;;
11039;SDS011;5573;49.592;8.662;2023-09-19T01:32:08;126.95;;;120.40;;
11039;SDS011;5573;49.592;8.662;2023-09-19T01:34:43;144.38;;;136.77;;
11039;SDS011;5573;49.592;8.662;2023-09-19T01:37:16;138.57;;;131.35;;
11039;SDS011;5573;49.592;8.662;2023-09-19T01:39:46;135.32;;;128.35;;
11039;SDS011;5573;49.592;8.662;2023-09-19T01:42:18;133.15;;;126.32;;
11039;SDS011;5573;49.592;8.662;2023-09-19T01:44:54;135.57;;;128.43;;
11039;SDS011;5573;49.592;8.662;2023-09-19T01:47:33;124.97;;;118.63;;
11039;SDS011;5573;49.592;8.662;2023-09-19T01:50:07;140.90;;;133.60;;
11039;SDS011;5573;49.592;8.662;2023-09-19T01:52:43;135.10;;;128.15;;
11039;SDS011;5573;49.592;8.662;2023-09-19T01:55:15;136.35;;;129.27;;
11039;SDS011;5573;49.592;8.662;2023-09-19T01:57:48;140.38;;;132.95;;
11039;SDS011;5573;49.592;8.662;2023-09-19T02:00:20;135.23;;;128.25;;
11039;SDS011;5573;49.592;8.662;2023-09-19T02:02:53;125.18;;;118.60;;
11039;SDS011;5573;49.592;8.662;2023-09-19T02:05:25;123.95;;;117.47;;
11039;SDS011;5573;49.592;8.662;2023-09-19T02:07:54;130.68;;;123.75;;
11039;SDS011;5573;49.592;8.662;2023-09-19T02:10:23;133.90;;;126.80;;
11039;SDS011;5573;49.592;8.662;2023-09-19T02:12:51;131.68;;;124.78;;
11039;SDS011;5573;49.592;8.662;2023-09-19T02:15:19;136.85;;;129.65;;
11039;SDS011;5573;49.592;8.662;2023-09-19T02:17:47;126.88;;;120.15;;
11039;SDS011;5573;49.592;8.662;2023-09-19T02:20:16;135.90;;;128.88;;
11039;SDS011;5573;49.592;8.662;2023-09-19T02:22:46;135.75;;;128.60;;
11039;SDS011;5573;49.592;8.662;2023-09-19T02:25:16;127.75;;;121.07;;
11039;SDS011;5573;49.592;8.662;2023-09-19T02:27:46;125.35;;;118.85;;
11039;SDS011;5573;49.592;8.662;2023-09-19T02:33:33;133.27;;;126.40;;
11039;SDS011;5573;49.592;8.662;2023-09-19T02:36:04;136.15;;;129.07;;
11039;SDS011;5573;49.592;8.662;2023-09-19T02:38:32;131.20;;;124.43;;
11039;SDS011;5573;49.592;8.662;2023-09-19T02:41:01;121.68;;;115.45;;
11039;SDS011;5573;49.592;8.662;2023-09-19T02:43:29;141.05;;;133.73;;
11039;SDS011;5573;49.592;8.662;2023-09-19T02:45:57;129.02;;;122.22;;
11039;SDS011;5573;49.592;8.662;2023-09-19T02:48:25;128.40;;;121.90;;
11039;SDS011;5573;49.592;8.662;2023-09-19T02:50:53;133.25;;;126.40;;
11039;SDS011;5573;49.592;8.662;2023-09-19T02:53:22;121.18;;;115.03;;
11039;SDS011;5573;49.592;8.662;2023-09-19T02:55:50;130.88;;;124.13;;
11039;SDS011;5573;49.592;8.662;2023-09-19T02:58:19;135.55;;;128.65;;
11039;SDS011;5573;49.592;8.662;2023-09-19T03:00:47;127.35;;;120.80;;
11039;SDS011;5573;49.592;8.662;2023-09-19T03:03:17;127.05;;;120.65;;
11039;SDS011;5573;49.592;8.662;2023-09-19T03:05:45;135.00;;;128.02;;
11039;SDS011;5573;49.592;8.662;2023-09-19T03:08:17;127.05;;;120.57;;
11039;SDS011;5573;49.592;8.662;2023-09-19T03:10:49;125.63;;;119.18;;
11039;SDS011;5573;49.592;8.662;2023-09-19T03:13:17;119.90;;;113.85;;
11039;SDS011;5573;49.592;8.662;2023-09-19T03:15:45;141.02;;;133.88;;
11039;SDS011;5573;49.592;8.662;2023-09-19T03:18:19;138.93;;;131.60;;
11039;SDS011;5573;49.592;8.662;2023-09-19T03:20:52;127.20;;;120.75;;
11039;SDS011;5573;49.592;8.662;2023-09-19T03:23:22;126.45;;;119.95;;
11039;SDS011;5573;49.592;8.662;2023-09-19T03:25:52;121.93;;;115.65;;
11039;SDS011;5573;49.592;8.662;2023-09-19T03:28:20;132.18;;;125.32;;
11039;SDS011;5573;49.592;8.662;2023-09-19T03:30:57;124.97;;;118.60;;
11039;SDS011;5573;49.592;8.662;2023-09-19T03:33:28;130.48;;;123.72;;
11039;SDS011;5573;49.592;8.662;2023-09-19T03:35:59;131.52;;;124.68;;
11039;SDS011;5573;49.592;8.662;2023-09-19T03:38:28;131.45;;;124.68;;
11039;SDS011;5573;49.592;8.662;2023-09-19T03:40:57;135.02;;;128.05;;
11039;SDS011;5573;49.592;8.662;2023-09-19T03:43:25;128.13;;;121.60;;
11039;SDS011;5573;49.592;8.662;2023-09-19T03:45:54;122.25;;;115.95;;
11039;SDS011;5573;49.592;8.662;2023-09-19T03:48:22;131.63;;;124.88;;
11039;SDS011;5573;49.592;8.662;2023-09-19T03:50:51;129.93;;;123.35;;
11039;SDS011;5573;49.592;8.662;2023-09-19T03:53:20;126.68;;;120.18;;
11039;SDS011;5573;49.592;8.662;2023-09-19T03:55:48;130.20;;;123.55;;
11039;SDS011;5573;49.592;8.662;2023-09-19T03:58:18;132.20;;;125.43;;
11039;SDS011;5573;49.592;8.662;2023-09-19T04:00:47;134.02;;;127.05;;
11039;SDS011;5573;49.592;8.662;2023-09-19T04:03:16;131.27;;;124.45;;
11039;SDS011;5573;49.592;8.662;2023-09-19T04:05:47;129.50;;;122.80;;
11039;SDS011;5573;49.592;8.662;2023-09-19T04:08:15;135.18;;;128.27;;
11039;SDS011;5573;49.592;8.662;2023-09-19T04:10:44;128.45;;;121.78;;
11039;SDS011;5573;49.592;8.662;2023-09-19T04:13:12;119.82;;;113.63;;
11039;SDS011;5573;49.592;8.662;2023-09-19T04:15:41;122.13;;;115.82;;
11039;SDS011;5573;49.592;8.662;2023-09-19T04:18:09;125.38;;;119.00;;
11039;SDS011;5573;49.592;8.662;2023-09-19T04:20:37;114.72;;;108.90;;
11039;SDS011;5573;49.592;8.662;2023-09-19T04:23:07;129.77;;;123.10;;
11039;SDS011;5573;49.592;8.662;2023-09-19T04:25:34;133.32;;;126.50;;
11039;SDS011;5573;49.592;8.662;2023-09-19T04:28:04;125.88;;;119.35;;
11039;SDS011;5573;49.592;8.662;2023-09-19T04:30:32;119.70;;;113.57;;
11039;SDS011;5573;49.592;8.662;2023-09-19T04:33:02;125.43;;;119.07;;
11039;SDS011;5573;49.592;8.662;2023-09-19T04:35:33;125.22;;;118.80;;
11039;SDS011;5573;49.592;8.662;2023-09-19T04:38:02;125.25;;;118.85;;
11039;SDS011;5573;49.592;8.662;2023-09-19T04:40:33;118.25;;;112.18;;
11039;SDS011;5573;49.592;8.662;2023-09-19T04:43:01;115.90;;;109.90;;
11039;SDS011;5573;49.592;8.662;2023-09-19T04:45:29;109.75;;;104.10;;
11039;SDS011;5573;49.592;8.662;2023-09-19T04:47:57;118.47;;;112.35;;
11039;SDS011;5573;49.592;8.662;2023-09-19T04:50:26;115.72;;;109.78;;
11039;SDS011;5573;49.592;8.662;2023-09-19T04:52:54;117.95;;;111.85;;
11039;SDS011;5573;49.592;8.662;2023-09-19T04:55:22;114.30;;;108.40;;
11039;SDS011;5573;49.592;8.662;2023-09-19T04:57:50;113.22;;;107.45;;
11039;SDS011;5573;49.592;8.662;2023-09-19T05:00:19;117.32;;;111.32;;
11039;SDS011;5573;49.592;8.662;2023-09-19T05:02:50;111.93;;;106.18;;
11039;SDS011;5573;49.592;8.662;2023-09-19T05:05:19;102.60;;;97.38;;
11039;SDS011;5573;49.592;8.662;2023-09-19T05:07:49;109.82;;;104.25;;
11039;SDS011;5573;49.592;8.662;2023-09-19T05:10:17;113.47;;;107.68;;
11039;SDS011;5573;49.592;8.662;2023-09-19T05:12:45;119.70;;;113.65;;
11039;SDS011;5573;49.592;8.662;2023-09-19T05:15:14;115.65;;;109.75;;
11039;SDS011;5573;49.592;8.662;2023-09-19T05:17:47;121.00;;;114.78;;
11039;SDS011;5573;49.592;8.662;2023-09-19T05:20:20;114.38;;;108.53;;
11039;SDS011;5573;49.592;8.662;2023-09-19T05:23:01;114.47;;;108.40;;
11039;SDS011;5573;49.592;8.662;2023-09-19T05:25:32;117.22;;;111.05;;
11039;SDS011;5573;49.592;8.662;2023-09-19T05:28:03;112.75;;;107.03;;
11039;SDS011;5573;49.592;8.662;2023-09-19T05:30:32;121.75;;;115.55;;
11039;SDS011;5573;49.592;8.662;2023-09-19T05:33:03;123.22;;;116.85;;
11039;SDS011;5573;49.592;8.662;2023-09-19T05:35:31;109.55;;;103.97;;
11039;SDS011;5573;49.592;8.662;2023-09-19T05:38:01;113.97;;;108.18;;
11039;SDS011;5573;49.592;8.662;2023-09-19T05:40:28;126.72;;;120.18;;
11039;SDS011;5573;49.592;8.662;2023-09-19T05:42:56;117.82;;;111.78;;
11039;SDS011;5573;49.592;8.662;2023-09-19T05:45:24;124.53;;;118.05;;
11039;SDS011;5573;49.592;8.662;2023-09-19T05:47:54;113.18;;;107.30;;
11039;SDS011;5573;49.592;8.662;2023-09-19T05:50:27;113.15;;;107.32;;
11039;SDS011;5573;49.592;8.662;2023-09-19T05:52:55;110.97;;;105.28;;
11039;SDS011;5573;49.592;8.662;2023-09-19T05:55:24;111.28;;;105.50;;
11039;SDS011;5573;49.592;8.662;2023-09-19T05:57:52;113.85;;;108.00;;
11039;SDS011;5573;49.592;8.662;2023-09-19T06:00:21;125.45;;;118.88;;
11039;SDS011;5573;49.592;8.662;2023-09-19T06:02:50;123.57;;;117.18;;
11039;SDS011;5573;49.592;8.662;2023-09-19T06:05:19;131.77;;;124.85;;
11039;SDS011;5573;49.592;8.662;2023-09-19T06:07:47;123.00;;;116.65;;
11039;SDS011;5573;49.592;8.662;2023-09-19T06:10:15;123.45;;;116.97;;
11039;SDS011;5573;49.592;8.662;2023-09-19T06:12:45;132.73;;;125.65;;
11039;SDS011;5573;49.592;8.662;2023-09-19T06:15:13;129.98;;;123.35;;
11039;SDS011;5573;49.592;8.662;2023-09-19T06:17:42;124.20;;;117.78;;
11039;SDS011;5573;49.592;8.662;2023-09-19T06:20:11;122.18;;;115.68;;
11039;SDS011;5573;49.592;8.662;2023-09-19T06:22:41;129.60;;;122.85;;
11039;SDS011;5573;49.592;8.662;2023-09-19T06:25:10;117.45;;;111.32;;
11039;SDS011;5573;49.592;8.662;2023-09-19T06:27:39;118.97;;;112.82;;
11039;SDS011;5573;49.592;8.662;2023-09-19T06:30:10;114.70;;;108.70;;
11039;SDS011;5573;49.592;8.662;2023-09-19T06:32:39;119.82;;;113.55;;
11039;SDS011;5573;49.592;8.662;2023-09-19T06:35:11;118.57;;;112.30;;
11039;SDS011;5573;49.592;8.662;2023-09-19T06:37:40;111.88;;;106.13;;
11039;SDS011;5573;49.592;8.662;2023-09-19T06:40:09;110.57;;;104.85;;
11039;SDS011;5573;49.592;8.662;2023-09-19T06:42:40;111.43;;;105.70;;
11039;SDS011;5573;49.592;8.662;2023-09-19T06:45:10;124.70;;;118.03;;
11039;SDS011;5573;49.592;8.662;2023-09-19T06:47:39;120.70;;;114.47;;
11039;SDS011;5573;49.592;8.662;2023-09-19T06:50:08;116.47;;;110.50;;
11039;SDS011;5573;49.592;8.662;2023-09-19T06:52:39;106.95;;;101.47;;
11039;SDS011;5573;49.592;8.662;2023-09-19T06:55:08;110.63;;;104.85;;
11039;SDS011;5573;49.592;8.662;2023-09-19T06:57:38;109.22;;;103.65;;
11039;SDS011;5573;49.592;8.662;2023-09-19T07:00:07;135.98;;;128.98;;
11039;SDS011;5573;49.592;8.662;2023-09-19T07:02:43;127.22;;;120.63;;
11039;SDS011;5573;49.592;8.662;2023-09-19T07:05:11;142.57;;;135.27;;
11039;SDS011;5573;49.592;8.662;2023-09-19T07:07:39;142.85;;;135.52;;
11039;SDS011;5573;49.592;8.662;2023-09-19T07:10:07;145.63;;;138.25;;
11039;SDS011;5573;49.592;8.662;2023-09-19T07:12:37;157.88;;;149.90;;
11039;SDS011;5573;49.592;8.662;2023-09-19T07:15:05;131.23;;;124.60;;
11039;SDS011;5573;49.592;8.662;2023-09-19T07:17:34;136.95;;;130.00;;
11039;SDS011;5573;49.592;8.662;2023-09-19T07:20:05;136.98;;;129.88;;
11039;SDS011;5573;49.592;8.662;2023-09-19T07:22:34;141.35;;;134.07;;
11039;SDS011;5573;49.592;8.662;2023-09-19T07:25:05;146.50;;;139.07;;
11039;SDS011;5573;49.592;8.662;2023-09-19T07:27:34;157.27;;;149.15;;
11039;SDS011;5573;49.592;8.662;2023-09-19T07:30:02;155.23;;;147.38;;
11039;SDS011;5573;49.592;8.662;2023-09-19T07:32:30;161.95;;;153.77;;
11039;SDS011;5573;49.592;8.662;2023-09-19T07:34:58;182.15;;;172.95;;
11039;SDS011;5573;49.592;8.662;2023-09-19T07:37:28;189.82;;;180.27;;
11039;SDS011;5573;49.592;8.662;2023-09-19T07:39:57;203.07;;;192.88;;
11039;SDS011;5573;49.592;8.662;2023-09-19T07:42:25;195.77;;;185.88;;
11039;SDS011;5573;49.592;8.662;2023-09-19T07:44:53;211.90;;;201.23;;
11039;SDS011;5573;49.592;8.662;2023-09-19T07:47:20;207.50;;;197.13;;
11039;SDS011;5573;49.592;8.662;2023-09-19T07:49:48;197.55;;;187.63;;
11039;SDS011;5573;49.592;8.662;2023-09-19T07:52:16;215.38;;;204.70;;
11039;SDS011;5573;49.592;8.662;2023-09-19T07:54:47;219.93;;;208.88;;
11039;SDS011;5573;49.592;8.662;2023-09-19T07:57:15;214.70;;;203.95;;
11039;SDS011;5573;49.592;8.662;2023-09-19T07:59:43;225.05;;;213.82;;
11039;SDS011;5573;49.592;8.662;2023-09-19T08:02:12;222.77;;;211.55;;
11039;SDS011;5573;49.592;8.662;2023-09-19T08:04:42;204.30;;;193.90;;
11039;SDS011;5573;49.592;8.662;2023-09-19T08:07:13;231.43;;;219.65;;
11039;SDS011;5573;49.592;8.662;2023-09-19T08:09:41;201.93;;;191.60;;
11039;SDS011;5573;49.592;8.662;2023-09-19T08:12:14;207.48;;;196.98;;
11039;SDS011;5573;49.592;8.662;2023-09-19T08:14:42;186.45;;;176.85;;
11039;SDS011;5573;49.592;8.662;2023-09-19T08:17:09;189.45;;;179.63;;
11039;SDS011;5573;49.592;8.662;2023-09-19T08:19:38;190.15;;;180.57;;
11039;SDS011;5573;49.592;8.662;2023-09-19T08:22:08;165.95;;;157.27;;
11039;SDS011;5573;49.592;8.662;2023-09-19T08:24:37;176.73;;;167.65;;
11039;SDS011;5573;49.592;8.662;2023-09-19T08:27:05;176.60;;;167.25;;
11039;SDS011;5573;49.592;8.662;2023-09-19T08:29:37;179.85;;;170.65;;
11039;SDS011;5573;49.592;8.662;2023-09-19T08:32:05;167.30;;;158.57;;
11039;SDS011;5573;49.592;8.662;2023-09-19T08:34:33;176.88;;;167.73;;
11039;SDS011;5573;49.592;8.662;2023-09-19T08:37:02;179.80;;;170.45;;
11039;SDS011;5573;49.592;8.662;2023-09-19T08:39:30;175.00;;;166.00;;
11039;SDS011;5573;49.592;8.662;2023-09-19T08:42:00;180.00;;;170.73;;
11039;SDS011;5573;49.592;8.662;2023-09-19T08:44:28;171.95;;;162.93;;
11039;SDS011;5573;49.592;8.662;2023-09-19T08:46:59;174.55;;;165.52;;
11039;SDS011;5573;49.592;8.662;2023-09-19T08:49:36;169.35;;;160.48;;
11039;SDS011;5573;49.592;8.662;2023-09-19T08:52:20;175.32;;;166.18;;
11039;SDS011;5573;49.592;8.662;2023-09-19T08:54:52;177.02;;;168.00;;
11039;SDS011;5573;49.592;8.662;2023-09-19T08:57:28;172.32;;;163.48;;
11039;SDS011;5573;49.592;8.662;2023-09-19T08:59:56;199.13;;;188.88;;
11039;SDS011;5573;49.592;8.662;2023-09-19T09:02:27;196.10;;;186.02;;
11039;SDS011;5573;49.592;8.662;2023-09-19T09:04:56;190.88;;;181.10;;
11039;SDS011;5573;49.592;8.662;2023-09-19T09:07:26;199.98;;;189.75;;
11039;SDS011;5573;49.592;8.662;2023-09-19T09:09:54;200.35;;;190.20;;
11039;SDS011;5573;49.592;8.662;2023-09-19T09:12:23;196.13;;;186.00;;
11039;SDS011;5573;49.592;8.662;2023-09-19T09:14:51;201.13;;;190.77;;
11039;SDS011;5573;49.592;8.662;2023-09-19T09:17:19;199.70;;;189.52;;
11039;SDS011;5573;49.592;8.662;2023-09-19T09:19:49;212.80;;;201.98;;
11039;SDS011;5573;49.592;8.662;2023-09-19T09:22:18;210.18;;;199.20;;
11039;SDS011;5573;49.592;8.662;2023-09-19T09:24:51;221.63;;;210.30;;
11039;SDS011;5573;49.592;8.662;2023-09-19T09:27:20;225.40;;;213.88;;
11039;SDS011;5573;49.592;8.662;2023-09-19T09:29:51;237.60;;;225.57;;
11039;SDS011;5573;49.592;8.662;2023-09-19T09:32:22;230.20;;;218.38;;
11039;SDS011;5573;49.592;8.662;2023-09-19T09:34:53;232.13;;;220.10;;
11039;SDS011;5573;49.592;8.662;2023-09-19T09:37:27;233.75;;;221.68;;
11039;SDS011;5573;49.592;8.662;2023-09-19T09:39:57;230.55;;;218.65;;
11039;SDS011;5573;49.592;8.662;2023-09-19T09:42:46;228.23;;;216.25;;
11039;SDS011;5573;49.592;8.662;2023-09-19T09:45:17;251.95;;;238.93;;
11039;SDS011;5573;49.592;8.662;2023-09-19T09:47:46;226.35;;;214.52;;
11039;SDS011;5573;49.592;8.662;2023-09-19T09:50:27;231.95;;;219.90;;
11039;SDS011;5573;49.592;8.662;2023-09-19T09:53:07;234.52;;;222.13;;
11039;SDS011;5573;49.592;8.662;2023-09-19T09:55:57;230.27;;;218.32;;
11039;SDS011;5573;49.592;8.662;2023-09-19T09:58:27;237.48;;;225.23;;
11039;SDS011;5573;49.592;8.662;2023-09-19T10:00:56;232.20;;;220.27;;
11039;SDS011;5573;49.592;8.662;2023-09-19T10:03:31;238.75;;;226.63;;
11039;SDS011;5573;49.592;8.662;2023-09-19T10:06:02;246.02;;;233.48;;
11039;SDS011;5573;49.592;8.662;2023-09-19T10:08:37;242.18;;;229.85;;
11039;SDS011;5573;49.592;8.662;2023-09-19T10:11:15;250.63;;;237.85;;
11039;SDS011;5573;49.592;8.662;2023-09-19T10:13:43;261.02;;;247.93;;
11039;SDS011;5573;49.592;8.662;2023-09-19T10:16:13;251.25;;;238.48;;
11039;SDS011;5573;49.592;8.662;2023-09-19T10:18:46;251.82;;;239.13;;
11039;SDS011;5573;49.592;8.662;2023-09-19T10:21:20;242.55;;;230.25;;
11039;SDS011;5573;49.592;8.662;2023-09-19T10:23:48;246.18;;;233.77;;
11039;SDS011;5573;49.592;8.662;2023-09-19T10:26:18;240.75;;;228.40;;
11039;SDS011;5573;49.592;8.662;2023-09-19T10:28:47;236.57;;;224.70;;
11039;SDS011;5573;49.592;8.662;2023-09-19T10:31:17;246.85;;;234.27;;
11039;SDS011;5573;49.592;8.662;2023-09-19T10:33:46;262.38;;;249.30;;
11039;SDS011;5573;49.592;8.662;2023-09-19T10:36:16;243.18;;;230.93;;
11039;SDS011;5573;49.592;8.662;2023-09-19T10:38:46;203.52;;;193.15;;
11039;SDS011;5573;49.592;8.662;2023-09-19T10:41:19;197.00;;;187.05;;
11039;SDS011;5573;49.592;8.662;2023-09-19T10:43:49;206.55;;;196.00;;
11039;SDS011;5573;49.592;8.662;2023-09-19T10:46:22;190.45;;;180.88;;
11039;SDS011;5573;49.592;8.662;2023-09-19T10:48:52;201.02;;;190.95;;
11039;SDS011;5573;49.592;8.662;2023-09-19T10:51:21;209.18;;;198.55;;
11039;SDS011;5573;49.592;8.662;2023-09-19T10:53:56;189.82;;;180.23;;
11039;SDS011;5573;49.592;8.662;2023-09-19T10:56:32;192.88;;;183.10;;
11039;SDS011;5573;49.592;8.662;2023-09-19T10:59:06;200.75;;;190.63;;
11039;SDS011;5573;49.592;8.662;2023-09-19T11:01:41;199.27;;;189.27;;
11039;SDS011;5573;49.592;8.662;2023-09-19T11:04:20;184.88;;;175.45;;
11039;SDS011;5573;49.592;8.662;2023-09-19T11:06:59;192.43;;;182.75;;
11039;SDS011;5573;49.592;8.662;2023-09-19T11:09:44;183.13;;;173.85;;
11039;SDS011;5573;49.592;8.662;2023-09-19T11:21:41;187.05;;;177.68;;
11039;SDS011;5573;49.592;8.662;2023-09-19T11:24:28;169.38;;;160.68;;
11039;SDS011;5573;49.592;8.662;2023-09-19T11:27:12;182.80;;;173.55;;
11039;SDS011;5573;49.592;8.662;2023-09-19T11:29:44;180.55;;;171.30;;
11039;SDS011;5573;49.592;8.662;2023-09-19T11:32:13;184.70;;;175.15;;
11039;SDS011;5573;49.592;8.662;2023-09-19T11:34:43;178.32;;;169.23;;
11039;SDS011;5573;49.592;8.662;2023-09-19T11:40:29;171.68;;;162.82;;
11039;SDS011;5573;49.592;8.662;2023-09-19T11:42:58;172.05;;;163.10;;
11039;SDS011;5573;49.592;8.662;2023-09-19T11:48:29;179.75;;;170.35;;
11039;SDS011;5573;49.592;8.662;2023-09-19T11:50:59;178.77;;;169.60;;
11039;SDS011;5573;49.592;8.662;2023-09-19T11:53:34;185.80;;;176.35;;
11039;SDS011;5573;49.592;8.662;2023-09-19T11:56:05;182.57;;;173.32;;
11039;SDS011;5573;49.592;8.662;2023-09-19T11:58:38;173.73;;;164.70;;
11039;SDS011;5573;49.592;8.662;2023-09-19T12:01:09;168.10;;;159.50;;
11039;SDS011;5573;49.592;8.662;2023-09-19T12:03:47;173.70;;;164.73;;
11039;SDS011;5573;49.592;8.662;2023-09-19T12:06:21;169.68;;;160.93;;
11039;SDS011;5573;49.592;8.662;2023-09-19T12:08:50;169.95;;;161.13;;
11039;SDS011;5573;49.592;8.662;2023-09-19T12:11:21;173.95;;;164.93;;
11039;SDS011;5573;49.592;8.662;2023-09-19T12:13:51;161.05;;;152.65;;
11039;SDS011;5573;49.592;8.662;2023-09-19T12:16:20;176.98;;;167.85;;
11039;SDS011;5573;49.592;8.662;2023-09-19T12:18:51;183.02;;;173.57;;
11039;SDS011;5573;49.592;8.662;2023-09-19T12:21:23;169.13;;;160.43;;
11039;SDS011;5573;49.592;8.662;2023-09-19T12:23:57;170.30;;;161.55;;
11039;SDS011;5573;49.592;8.662;2023-09-19T12:26:26;178.85;;;169.65;;
11039;SDS011;5573;49.592;8.662;2023-09-19T12:28:58;170.95;;;162.13;;
11039;SDS011;5573;49.592;8.662;2023-09-19T12:31:26;171.50;;;162.65;;
11039;SDS011;5573;49.592;8.662;2023-09-19T12:33:54;174.90;;;166.00;;
11039;SDS011;5573;49.592;8.662;2023-09-19T12:36:22;170.52;;;161.75;;
11039;SDS011;5573;49.592;8.662;2023-09-19T12:38:55;186.05;;;176.68;;
11039;SDS011;5573;49.592;8.662;2023-09-19T12:41:25;182.82;;;173.60;;
11039;SDS011;5573;49.592;8.662;2023-09-19T12:43:53;177.30;;;168.20;;
11039;SDS011;5573;49.592;8.662;2023-09-19T12:46:22;173.50;;;164.75;;
11039;SDS011;5573;49.592;8.662;2023-09-19T12:51:45;180.93;;;171.68;;
11039;SDS011;5573;49.592;8.662;2023-09-19T12:54:13;167.52;;;158.80;;
11039;SDS011;5573;49.592;8.662;2023-09-19T12:56:43;179.52;;;170.25;;
11039;SDS011;5573;49.592;8.662;2023-09-19T12:59:12;189.80;;;180.23;;
11039;SDS011;5573;49.592;8.662;2023-09-19T13:01:43;179.20;;;170.05;;
11039;SDS011;5573;49.592;8.662;2023-09-19T13:04:13;199.27;;;189.25;;
11039;SDS011;5573;49.592;8.662;2023-09-19T13:06:44;195.27;;;185.23;;
11039;SDS011;5573;49.592;8.662;2023-09-19T13:09:15;205.25;;;194.68;;
11039;SDS011;5573;49.592;8.662;2023-09-19T13:11:44;196.63;;;186.70;;
11039;SDS011;5573;49.592;8.662;2023-09-19T13:14:15;204.43;;;194.05;;
11039;SDS011;5573;49.592;8.662;2023-09-19T13:16:56;200.38;;;190.10;;
11039;SDS011;5573;49.592;8.662;2023-09-19T13:19:38;204.48;;;194.07;;
11039;SDS011;5573;49.592;8.662;2023-09-19T13:25:05;198.02;;;187.77;;
11039;SDS011;5573;49.592;8.662;2023-09-19T13:27:34;203.27;;;192.98;;
11039;SDS011;5573;49.592;8.662;2023-09-19T13:30:02;203.40;;;192.93;;
11039;SDS011;5573;49.592;8.662;2023-09-19T13:32:33;209.55;;;199.00;;
11039;SDS011;5573;49.592;8.662;2023-09-19T13:35:01;199.98;;;189.80;;
11039;SDS011;5573;49.592;8.662;2023-09-19T13:37:28;198.90;;;188.77;;
11039;SDS011;5573;49.592;8.662;2023-09-19T13:39:58;205.27;;;194.95;;
11039;SDS011;5573;49.592;8.662;2023-09-19T13:42:27;203.77;;;193.38;;
11039;SDS011;5573;49.592;8.662;2023-09-19T13:44:57;194.23;;;184.23;;
11039;SDS011;5573;49.592;8.662;2023-09-19T13:47:25;211.70;;;201.15;;
11039;SDS011;5573;49.592;8.662;2023-09-19T13:49:55;204.48;;;194.05;;
11039;SDS011;5573;49.592;8.662;2023-09-19T13:52:23;210.30;;;199.65;;
11039;SDS011;5573;49.592;8.662;2023-09-19T13:54:54;199.07;;;189.07;;
11039;SDS011;5573;49.592;8.662;2023-09-19T13:57:23;205.70;;;195.40;;
11039;SDS011;5573;49.592;8.662;2023-09-19T13:59:51;201.98;;;191.80;;
11039;SDS011;5573;49.592;8.662;2023-09-19T14:02:21;192.30;;;182.50;;
11039;SDS011;5573;49.592;8.662;2023-09-19T14:04:50;195.80;;;185.73;;
11039;SDS011;5573;49.592;8.662;2023-09-19T14:07:20;197.02;;;187.13;;
11039;SDS011;5573;49.592;8.662;2023-09-19T14:09:48;213.75;;;202.85;;
11039;SDS011;5573;49.592;8.662;2023-09-19T14:12:16;203.93;;;193.70;;
11039;SDS011;5573;49.592;8.662;2023-09-19T14:14:44;196.82;;;186.80;;
11039;SDS011;5573;49.592;8.662;2023-09-19T14:17:12;204.20;;;193.82;;
11039;SDS011;5573;49.592;8.662;2023-09-19T14:19:41;188.02;;;178.48;;
11039;SDS011;5573;49.592;8.662;2023-09-19T14:22:12;205.23;;;194.90;;
11039;SDS011;5573;49.592;8.662;2023-09-19T14:24:41;215.35;;;204.38;;
11039;SDS011;5573;49.592;8.662;2023-09-19T14:27:10;194.43;;;184.65;;
11039;SDS011;5573;49.592;8.662;2023-09-19T14:29:38;212.68;;;201.95;;
11039;SDS011;5573;49.592;8.662;2023-09-19T14:32:05;202.52;;;192.23;;
11039;SDS011;5573;49.592;8.662;2023-09-19T14:34:33;196.70;;;186.68;;
11039;SDS011;5573;49.592;8.662;2023-09-19T14:37:03;200.63;;;190.43;;
11039;SDS011;5573;49.592;8.662;2023-09-19T14:39:31;199.43;;;189.35;;
11039;SDS011;5573;49.592;8.662;2023-09-19T14:42:00;201.13;;;190.95;;
11039;SDS011;5573;49.592;8.662;2023-09-19T14:44:28;196.45;;;186.48;;
11039;SDS011;5573;49.592;8.662;2023-09-19T14:46:55;190.00;;;180.25;;
11039;SDS011;5573;49.592;8.662;2023-09-19T14:49:23;204.38;;;194.05;;
11039;SDS011;5573;49.592;8.662;2023-09-19T14:51:52;196.20;;;186.35;;